AirNav   Airventure
 
 320 users online  

NH17 Zim Airport
Mason, New Hampshire, USA

GOING TO MASON?


FAA INFORMATION EFFECTIVE 20 JULY 2017

Location

FAA Identifier: NH17
Lat/Long: 42-43-39.2400N / 071-43-03.4000W
42-43.654000N / 071-43.056667W
42.7275667 / -71.7176111
(estimated)
Elevation: 560 ft. / 171 m (estimated)
Variation: 15W (1985)
From city: 5 miles SE of MASON, NH
Time zone: UTC -4 (UTC -5 during Standard Time)
Zip code: 03048

Airport Operations

Airport use: Private use. Permission required prior to landing
Activation date: 11/1988
Control tower: no
ARTCC: BOSTON CENTER
FSS: BANGOR FLIGHT SERVICE STATION
Attendance: UNATNDD
Wind indicator: yes
Segmented circle: no
Landing fee: yes

Airport Communications

WX AWOS-3PT at ASH (10 nm E): 125.1 (603-578-0473)
WX ASOS at FIT (11 nm S): 135.175 (978-343-9121)
WX ASOS at AFN (13 nm W): 135.875 (603-532-6195)
WX ASOS at MHT (17 nm NE): 119.55 (603-621-1766)

Nearby radio navigation aids

VOR radial/distance  VOR name  Freq  Var
MHTr256/17.5MANCHESTER VOR/DME114.4015W
GDMr068/18.6GARDNER VOR/DME110.6014W
EENr113/25.6KEENE VORTAC109.4014W
LWMr283/27.5LAWRENCE VOR/DME112.5015W
CONr207/30.2CONCORD VOR/DME112.9015W
BOSr321/39.1BOSTON VOR/DME112.7016W

 
NDB name  Hdg/Dist  Freq  Var  ID
CHERN237/7.735916WAS .- ...
FITCHBURG024/10.736515WFIT ..-. .. -
SHAKER HILL320/28.925116WSKR ... -.- .-.

Airport Services

Runway Information

Runway 1/19

Dimensions: 1500 x 150 ft. / 457 x 46 m
Surface: turf
RUNWAY 1  RUNWAY 19
Traffic pattern: leftright

Airport Ownership and Management from official FAA records

Ownership: Privately-owned
Owner: ROBERT V. ZIMINSKY
227 CAMPBELL MILL ROAD
MASON, NH 03048
Phone 603-878-2224
Manager: ROBERT V. ZIMINSKY
227 CAMPBELL MILL ROAD
MASON, NH 03048
Phone 603-878-2224

Airport Operational Statistics

Aircraft based on the field: 1
Single engine airplanes: 1
    

Additional Remarks

A52-01 NO OBSTRUCTIONS FIRST 1000 FT.
ALL TRAFFIC REMAIN EAST OF THE RY.
1000 FT CLEARWAY AER 01.

Instrument Procedures

There are no published instrument procedures at NH17.

Some nearby airports with instrument procedures:

KASH - Boire Field Airport (10 nm E)
KFIT - Fitchburg Municipal Airport (11 nm S)
KAFN - Jaffrey Airport-Silver Ranch (13 nm W)
KGDM - Gardner Municipal Airport (17 nm SW)
KMHT - Manchester Airport (17 nm NE)
6B6 - Minute Man Air Field (18 nm SE)
 
Loc | Ops | Rwys | IFR | FBO | Links
Com | Nav | Svcs | Stats | Notes


 
Area around NH17 (Zim Airport)
 
Road maps at: MapQuest Bing Google
 
Aerial photo
WARNING: Photo may not be current or correct
Aerial photo of NH17 (Zim Airport)
Do you have a better or more recent aerial photo of Zim Airport that you would like to share? If so, please send us your photo.

 
Sectional chart

 
Airport distance calculator
Flying to Zim Airport? Find the distance to fly.

From to NH17

Sunrise and sunset
Times for 25-Jul-2017
 Local
(UTC-4)
 Zulu
(UTC)
Morning civil twilight04:5908:59
Sunrise05:3209:32
Sunset20:1400:14
Evening civil twilight20:4700:47

Current date and time
Zulu (UTC)  25-Jul-2017 07:44:49
Local (UTC-4)  25-Jul-2017 03:44:49
 
METAR
KASH 
9nm E 
250656Z AUTO 35004KT 10SM OVC010 13/13 A3001 RMK AO2 CIG 007V013 SLP174 T01330128
KFIT 
11nm S 
250727Z AUTO 00000KT 10SM OVC008 14/12 A3002 RMK AO2 CIG 006V010 T01390122
KAFN 
13nm W 
250652Z AUTO VRB03KT 4SM BR OVC003 12/12 A3002 RMK AO2 SLP173 T01220122
KMHT 
18nm NE 
250653Z 01005KT 10SM SCT009 OVC013 14/11 A3000 RMK AO2 SLP172 T01390111
TAF
KMHT 
18nm NE 
250520Z 2506/2606 01006KT 5SM BR BKN015 FM251200 36007KT P6SM OVC015 FM251700 01006KT P6SM BKN050 FM260200 00000KT 1SM BR SCT090
NOTAMs
Click for the latest NOTAMs
NOTAMs are issued by the DoD/FAA and will open in a separate window not controlled by AirNav.

 

 
 

Would you like to see your business listed on this page?

 If your business provides an interesting product or service to pilots, flight crews, aircraft, or users of the Zim Airport, you should consider listing it here.  To start the listing process, click on the button below
 
Add a business
 

Other Pages about Zim Airport

Update a link
 
Copyright © AirNav, LLC. All rights reserved. Privacy Policy  Contact